Time;durP1;ratioP1;P1;durP2;ratioP2;P2;SDS_P1;SDS_P2;PMS_P1;PMS_P2;Temp;Humidity;BMP_temperature;BMP_pressure;BME280_temperature;BME280_humidity;BME280_pressure;Samples;Min_cycle;Max_cycle;Signal;HPM_P1;HPM_P2
2021/06/08 18:01:51;;;;;;;5.82;5.22;;;23.70;79.30;;;;;;5277174;22;21118;-42
2021/06/08 18:04:19;;;;;;;5.10;4.63;;;23.30;81.40;;;;;;5092791;27;20235;-39
2021/06/08 18:06:47;;;;;;;5.32;4.80;;;23.10;82.00;;;;;;5088796;28;20301;-39
2021/06/08 18:09:15;;;;;;;5.80;5.05;;;23.00;83.40;;;;;;5088819;28;20664;-40
2021/06/08 18:11:42;;;;;;;5.38;4.97;;;22.90;83.40;;;;;;5088842;28;20212;-39
2021/06/08 18:14:10;;;;;;;5.45;5.03;;;22.80;83.90;;;;;;5088997;28;20229;-39
2021/06/08 18:16:40;;;;;;;6.38;5.88;;;22.70;84.50;;;;;;5089016;28;20245;-39
2021/06/08 18:19:15;;;;;;;5.75;5.35;;;22.50;84.90;;;;;;5088920;28;20540;-38
2021/06/08 18:21:44;;;;;;;5.55;5.05;;;22.40;84.90;;;;;;5088780;28;20607;-38
2021/06/08 18:24:12;;;;;;;7.22;6.63;;;22.30;85.20;;;;;;5088629;28;20238;-39
2021/06/08 18:26:42;;;;;;;7.30;6.57;;;22.20;85.00;;;;;;5088638;28;20221;-41
2021/06/08 18:29:10;;;;;;;5.45;5.03;;;22.10;85.30;;;;;;5088613;28;20230;-39
2021/06/08 18:31:39;;;;;;;9.63;7.13;;;21.90;85.60;;;;;;5088521;28;20297;-40
2021/06/08 18:34:08;;;;;;;8.50;5.80;;;21.80;86.00;;;;;;5088382;28;20238;-39
2021/06/08 18:36:36;;;;;;;5.22;4.82;;;21.60;86.40;;;;;;5088521;28;20211;-38
2021/06/08 18:39:05;;;;;;;6.82;6.22;;;21.60;87.00;;;;;;5088572;28;20217;-39
2021/06/08 18:41:33;;;;;;;6.00;5.40;;;21.40;87.30;;;;;;5088424;28;20293;-40
2021/06/08 18:44:01;;;;;;;6.50;5.90;;;21.30;87.50;;;;;;5088434;28;20579;-39
2021/06/08 18:46:31;;;;;;;5.82;4.85;;;21.20;87.70;;;;;;5088036;28;20222;-43
2021/06/08 18:48:58;;;;;;;5.88;5.38;;;21.10;88.00;;;;;;5087873;28;20295;-38
2021/06/08 18:51:27;;;;;;;5.82;5.43;;;21.00;88.40;;;;;;5087769;28;20716;-39
2021/06/08 18:53:55;;;;;;;7.10;6.40;;;21.00;88.70;;;;;;5087555;28;20687;-39
2021/06/08 18:56:26;;;;;;;5.32;4.88;;;20.90;89.20;;;;;;5087710;28;20207;-42
2021/06/08 18:58:55;;;;;;;9.70;8.20;;;20.70;89.80;;;;;;5087755;28;20226;-39
2021/06/08 19:01:24;;;;;;;6.13;5.63;;;20.60;90.20;;;;;;5081640;28;20326;-40
2021/06/08 19:03:52;;;;;;;6.57;6.07;;;20.50;90.80;;;;;;5074536;28;20260;-39
2021/06/08 19:06:20;;;;;;;5.75;5.35;;;20.50;90.80;;;;;;5074508;28;20207;-39
2021/06/08 19:08:49;;;;;;;9.10;8.23;;;20.40;91.30;;;;;;5074509;28;20210;-39
2021/06/08 19:11:17;;;;;;;6.88;6.28;;;20.30;91.40;;;;;;5074568;28;20643;-39
2021/06/08 19:13:44;;;;;;;7.28;6.57;;;20.30;91.70;;;;;;5074083;28;20234;-39
2021/06/08 19:16:11;;;;;;;7.07;6.18;;;20.20;91.90;;;;;;5074056;28;20293;-39
2021/06/08 19:18:39;;;;;;;8.65;7.53;;;20.20;92.20;;;;;;5074112;28;20302;-39
2021/06/08 19:21:07;;;;;;;8.60;7.80;;;20.10;92.50;;;;;;5074072;28;20251;-40
2021/06/08 19:23:34;;;;;;;6.65;6.15;;;20.00;92.80;;;;;;5073912;28;20653;-40
2021/06/08 19:26:04;;;;;;;7.57;6.97;;;20.00;93.10;;;;;;5074179;28;20215;-40
2021/06/08 19:28:31;;;;;;;6.75;6.25;;;19.90;93.40;;;;;;5074227;28;20211;-40
2021/06/08 19:30:58;;;;;;;7.35;6.65;;;19.80;93.90;;;;;;5074119;28;20274;-37
2021/06/08 19:33:26;;;;;;;9.15;8.27;;;19.70;94.10;;;;;;5074154;28;20212;-40
2021/06/08 19:35:54;;;;;;;6.90;6.40;;;19.70;94.30;;;;;;5073923;28;20219;-39
2021/06/08 19:38:21;;;;;;;6.88;6.38;;;19.70;94.60;;;;;;5074089;28;20215;-38
2021/06/08 19:40:49;;;;;;;10.57;9.32;;;19.60;94.80;;;;;;5073918;28;20298;-38
2021/06/08 19:43:18;;;;;;;7.00;6.43;;;19.60;95.00;;;;;;5073541;28;20207;-39
2021/06/08 19:45:45;;;;;;;6.97;6.47;;;19.60;95.30;;;;;;5073713;28;20235;-41
2021/06/08 19:48:13;;;;;;;7.32;6.63;;;19.50;95.60;;;;;;5073687;28;20235;-38
2021/06/08 19:50:42;;;;;;;19.38;17.70;;;19.40;95.80;;;;;;5073413;28;20390;-39
2021/06/08 19:53:11;;;;;;;8.18;7.50;;;19.40;96.20;;;;;;5073477;28;20297;-38
2021/06/08 19:55:39;;;;;;;7.45;6.75;;;19.30;96.70;;;;;;5073319;28;20570;-42
2021/06/08 19:58:06;;;;;;;8.10;7.50;;;19.30;96.70;;;;;;5073156;28;20207;-39
2021/06/08 20:00:35;;;;;;;8.90;8.10;;;19.20;97.00;;;;;;5073101;28;20286;-39
2021/06/08 20:03:03;;;;;;;9.30;8.50;;;19.20;97.30;;;;;;5073194;28;20742;-39
2021/06/08 20:05:30;;;;;;;9.60;8.68;;;19.30;97.50;;;;;;5073230;28;20344;-39
2021/06/08 20:07:58;;;;;;;8.15;7.38;;;19.30;97.70;;;;;;5073144;28;20237;-39
2021/06/08 20:10:26;;;;;;;9.23;8.50;;;19.30;98.00;;;;;;5072912;28;20269;-39
2021/06/08 20:12:53;;;;;;;14.15;12.88;;;19.30;98.20;;;;;;5072010;28;20211;-39
2021/06/08 20:15:21;;;;;;;8.45;7.78;;;19.20;98.40;;;;;;5073067;28;20207;-38
2021/06/08 20:17:50;;;;;;;8.60;7.78;;;19.20;98.50;;;;;;5072841;28;20220;-39
2021/06/08 20:20:19;;;;;;;9.77;8.98;;;19.20;98.70;;;;;;5072751;28;20642;-39
2021/06/08 20:22:46;;;;;;;9.75;9.02;;;19.20;99.00;;;;;;5072766;28;20229;-39
2021/06/08 20:25:14;;;;;;;8.75;8.15;;;19.10;99.20;;;;;;5073006;28;20208;-39
2021/06/08 20:27:43;;;;;;;9.70;8.90;;;19.10;99.30;;;;;;5072877;28;20235;-39
2021/06/08 20:30:12;;;;;;;9.10;8.30;;;19.10;99.40;;;;;;5072349;28;20449;-38
2021/06/08 20:32:40;;;;;;;9.02;8.32;;;19.10;99.60;;;;;;5072494;28;20329;-39
2021/06/08 20:35:10;;;;;;;9.05;8.35;;;19.10;99.80;;;;;;5072569;28;20738;-39
2021/06/08 20:37:38;;;;;;;9.27;8.38;;;19.10;99.90;;;;;;5072688;28;20215;-41
2021/06/08 20:40:09;;;;;;;9.38;8.73;;;19.10;99.90;;;;;;5072602;28;20310;-39
2021/06/08 20:42:37;;;;;;;8.43;7.75;;;19.10;99.90;;;;;;5071218;28;20254;-40
2021/06/08 20:45:06;;;;;;;9.35;8.65;;;19.00;99.90;;;;;;5072392;28;20401;-42
2021/06/08 20:47:34;;;;;;;9.05;8.35;;;19.00;99.90;;;;;;5072382;28;20302;-38
2021/06/08 20:50:03;;;;;;;9.35;8.63;;;19.00;99.90;;;;;;5072118;28;20250;-39
2021/06/08 20:52:32;;;;;;;9.23;8.52;;;19.00;99.90;;;;;;5072243;28;20203;-39
2021/06/08 20:55:00;;;;;;;8.98;8.30;;;18.90;99.90;;;;;;5072213;28;20307;-39
2021/06/08 20:57:27;;;;;;;8.57;7.97;;;18.90;99.90;;;;;;5072291;28;20208;-40
2021/06/08 20:59:55;;;;;;;9.70;8.90;;;18.90;99.90;;;;;;5072107;28;20247;-39
2021/06/08 21:02:22;;;;;;;14.10;8.77;;;18.90;99.90;;;;;;5071923;28;20232;-42
2021/06/08 21:04:50;;;;;;;8.52;7.82;;;18.80;99.90;;;;;;5072043;28;20673;-38
2021/06/08 21:07:18;;;;;;;10.65;9.82;;;18.80;99.90;;;;;;5071898;28;20298;-39
2021/06/08 21:09:46;;;;;;;9.13;8.32;;;18.80;99.90;;;;;;5072239;28;20565;-39
2021/06/08 21:12:14;;;;;;;9.23;8.52;;;18.80;99.90;;;;;;5071840;28;20233;-39
2021/06/08 21:14:41;;;;;;;10.00;9.20;;;18.80;99.90;;;;;;5071534;28;20207;-38
2021/06/08 21:17:09;;;;;;;10.48;9.68;;;18.70;99.90;;;;;;5072366;28;20500;-39
2021/06/08 21:19:36;;;;;;;10.45;9.52;;;18.80;99.90;;;;;;5071735;28;20663;-38
2021/06/08 21:22:04;;;;;;;11.18;10.32;;;18.70;99.90;;;;;;5072160;28;20209;-39
2021/06/08 21:24:32;;;;;;;12.02;11.02;;;18.70;99.90;;;;;;5071607;28;20348;-39
2021/06/08 21:27:02;;;;;;;11.93;10.75;;;18.70;99.90;;;;;;5072038;28;20246;-39
2021/06/08 21:29:29;;;;;;;11.70;10.68;;;18.70;99.90;;;;;;5071728;28;20641;-38
2021/06/08 21:31:57;;;;;;;11.75;10.65;;;18.60;99.90;;;;;;5071788;28;20318;-38
2021/06/08 21:34:25;;;;;;;11.40;10.30;;;18.60;99.90;;;;;;5071613;28;20559;-39
2021/06/08 21:36:52;;;;;;;11.88;10.73;;;18.60;99.90;;;;;;5071768;28;20223;-40
2021/06/08 21:39:20;;;;;;;12.10;10.90;;;18.60;99.90;;;;;;5071687;28;20211;-38
2021/06/08 21:41:48;;;;;;;11.05;10.18;;;18.60;99.90;;;;;;5071873;28;20199;-39
2021/06/08 21:44:17;;;;;;;11.68;10.50;;;18.50;99.90;;;;;;5071483;28;20207;-39
2021/06/08 21:46:45;;;;;;;11.63;10.63;;;18.50;99.90;;;;;;5071602;28;20666;-39
2021/06/08 21:49:13;;;;;;;12.18;10.55;;;18.50;99.90;;;;;;5071846;28;20226;-39
2021/06/08 21:51:40;;;;;;;11.63;10.43;;;18.40;99.90;;;;;;5071789;28;20315;-39
2021/06/08 21:54:08;;;;;;;10.43;9.63;;;18.40;99.90;;;;;;5071654;28;20203;-39
2021/06/08 21:56:35;;;;;;;11.18;10.27;;;18.40;99.90;;;;;;5071570;28;20297;-39
2021/06/08 21:59:03;;;;;;;10.10;9.20;;;18.30;99.90;;;;;;5071712;28;20298;-38
2021/06/08 22:01:32;;;;;;;10.55;9.80;;;18.30;99.90;;;;;;5071421;28;20258;-39
2021/06/08 22:04:00;;;;;;;11.15;10.20;;;18.20;99.90;;;;;;5071590;28;20222;-39
2021/06/08 22:06:28;;;;;;;11.15;10.35;;;18.10;99.90;;;;;;5071536;28;20294;-39
2021/06/08 22:08:55;;;;;;;11.18;10.27;;;18.10;99.90;;;;;;5071138;28;20212;-39
2021/06/08 22:11:22;;;;;;;10.65;9.82;;;18.00;99.90;;;;;;5071488;28;20239;-39
2021/06/08 22:13:50;;;;;;;10.82;9.93;;;18.00;99.90;;;;;;5071569;28;20211;-39
2021/06/08 22:16:17;;;;;;;10.65;9.85;;;18.00;99.90;;;;;;5071367;28;20298;-39
2021/06/08 22:18:46;;;;;;;11.00;10.00;;;17.90;99.90;;;;;;5071282;28;20668;-38
2021/06/08 22:21:14;;;;;;;10.90;10.00;;;17.90;99.90;;;;;;5071279;28;20286;-38
2021/06/08 22:23:42;;;;;;;11.77;10.73;;;17.80;99.90;;;;;;5071246;28;20214;-38
2021/06/08 22:26:09;;;;;;;11.85;10.95;;;17.80;99.90;;;;;;5071520;28;20631;-39
2021/06/08 22:28:37;;;;;;;11.25;10.25;;;17.70;99.90;;;;;;5071143;28;20210;-38
2021/06/08 22:31:04;;;;;;;12.30;11.38;;;17.70;99.90;;;;;;5071356;28;20734;-38
2021/06/08 22:33:32;;;;;;;11.27;10.38;;;17.60;99.90;;;;;;5071278;28;20234;-39
2021/06/08 22:36:01;;;;;;;11.70;10.70;;;17.60;99.90;;;;;;5071169;28;20325;-39
2021/06/08 22:38:28;;;;;;;12.30;11.07;;;17.60;99.90;;;;;;5075057;28;20214;-38
2021/06/08 22:40:55;;;;;;;11.68;10.68;;;17.50;99.90;;;;;;5075131;28;20344;-38
2021/06/08 22:43:23;;;;;;;12.07;10.98;;;17.50;99.90;;;;;;5074765;28;20214;-39
2021/06/08 22:45:50;;;;;;;11.05;10.25;;;17.40;99.90;;;;;;5074934;28;20294;-38
2021/06/08 22:48:18;;;;;;;11.45;10.55;;;17.40;99.90;;;;;;5074725;28;20301;-39
2021/06/08 22:50:45;;;;;;;11.52;10.55;;;17.40;99.90;;;;;;5074484;28;20211;-39
2021/06/08 22:53:14;;;;;;;11.02;10.15;;;17.40;99.90;;;;;;5074894;28;20249;-39
2021/06/08 22:55:42;;;;;;;11.75;10.77;;;17.30;99.90;;;;;;5074626;28;20246;-38
2021/06/08 22:58:09;;;;;;;11.70;10.80;;;17.30;99.90;;;;;;5074611;28;20306;-38
2021/06/08 23:00:36;;;;;;;12.10;11.13;;;17.30;99.90;;;;;;5074253;28;20214;-38
2021/06/08 23:03:05;;;;;;;11.75;10.85;;;17.20;99.90;;;;;;5074493;28;20294;-38
2021/06/08 23:05:32;;;;;;;11.73;10.73;;;17.20;99.90;;;;;;5074380;28;20294;-39
2021/06/08 23:08:01;;;;;;;11.60;10.70;;;17.20;99.90;;;;;;5074603;28;20637;-38
2021/06/08 23:10:30;;;;;;;12.57;11.45;;;17.20;99.90;;;;;;5074662;28;20242;-38
2021/06/08 23:12:58;;;;;;;12.43;11.48;;;17.10;99.90;;;;;;5074241;28;20231;-38
2021/06/08 23:15:26;;;;;;;12.20;11.10;;;17.20;99.90;;;;;;5074355;28;20239;-38
2021/06/08 23:17:55;;;;;;;12.88;11.75;;;17.10;99.90;;;;;;5074202;28;20234;-38
2021/06/08 23:20:23;;;;;;;12.63;11.43;;;17.20;99.90;;;;;;5074354;28;20574;-38
2021/06/08 23:22:50;;;;;;;13.00;12.00;;;17.10;99.90;;;;;;5074356;28;20226;-38
2021/06/08 23:25:18;;;;;;;13.52;12.43;;;17.10;99.90;;;;;;5074153;28;20207;-38
2021/06/08 23:27:47;;;;;;;13.23;12.07;;;17.10;99.90;;;;;;5074231;28;20324;-38
2021/06/08 23:30:15;;;;;;;12.82;11.82;;;17.10;99.90;;;;;;5073990;28;20222;-38
2021/06/08 23:32:43;;;;;;;13.18;11.95;;;17.00;99.90;;;;;;5074165;28;20319;-38
2021/06/08 23:35:11;;;;;;;12.38;11.40;;;17.00;99.90;;;;;;5074038;28;20302;-38
2021/06/08 23:37:39;;;;;;;12.77;11.55;;;17.00;99.90;;;;;;5074021;28;20298;-39
2021/06/08 23:40:07;;;;;;;13.80;12.65;;;17.00;99.90;;;;;;5073938;28;20218;-38
2021/06/08 23:42:35;;;;;;;12.45;11.45;;;17.00;99.90;;;;;;5073854;28;20610;-38
2021/06/08 23:45:05;;;;;;;13.27;12.18;;;17.00;99.90;;;;;;5073757;28;20213;-43
2021/06/08 23:47:33;;;;;;;12.63;11.57;;;16.90;99.90;;;;;;5073759;28;20653;-40
2021/06/08 23:50:00;;;;;;;12.88;11.88;;;16.90;99.90;;;;;;5073726;28;20298;-40
2021/06/08 23:52:30;;;;;;;12.63;11.63;;;16.90;99.90;;;;;;5073683;28;20326;-40
2021/06/08 23:54:57;;;;;;;13.55;12.35;;;16.90;99.90;;;;;;5073614;28;20219;-41
2021/06/08 23:57:24;;;;;;;14.45;13.30;;;16.80;99.90;;;;;;5073700;28;20218;-40
2021/06/08 23:59:52;;;;;;;14.88;13.52;;;16.80;99.90;;;;;;5073553;28;20302;-41
